createdAt,value
2022-10-22T00:02:24.940Z,100771.03
2022-10-22T00:04:58.971Z,100768.34
2022-10-22T00:07:26.604Z,100767.50
2022-10-22T00:09:54.896Z,100777.91
2022-10-22T00:12:27.079Z,100782.13
2022-10-22T00:14:57.593Z,100783.00
2022-10-22T00:17:24.538Z,100782.19
2022-10-22T00:19:54.517Z,100789.06
2022-10-22T00:22:27.529Z,100792.50
2022-10-22T00:24:56.722Z,100782.09
2022-10-22T00:27:29.737Z,100789.84
2022-10-22T00:29:59.883Z,100786.44
2022-10-22T00:32:31.085Z,100789.84
2022-10-22T00:35:06.961Z,100780.31
2022-10-22T00:37:44.640Z,100782.91
2022-10-22T00:40:12.560Z,100775.28
2022-10-22T00:42:44.018Z,100783.75
2022-10-22T00:45:11.825Z,100772.63
2022-10-22T00:48:01.253Z,100782.81
2022-10-22T00:50:52.120Z,100778.44
2022-10-22T00:53:47.844Z,100772.50
2022-10-22T00:56:15.326Z,100760.63
2022-10-22T01:01:51.230Z,100780.19
2022-10-22T01:04:18.880Z,100772.38
2022-10-22T01:06:49.028Z,100777.63
2022-10-22T01:09:48.513Z,100774.13
2022-10-22T01:12:46.246Z,100779.38
2022-10-22T01:15:27.371Z,100781.19
2022-10-22T01:18:04.570Z,100776.78
2022-10-22T01:20:58.921Z,100769.81
2022-10-22T01:24:04.530Z,100765.47
2022-10-22T01:27:03.150Z,100758.50
2022-10-22T01:30:06.367Z,100763.69
2022-10-22T01:32:45.084Z,100755.03
2022-10-22T01:35:19.894Z,100732.81
2022-10-22T01:37:57.658Z,100759.38
2022-10-22T01:40:31.520Z,100758.47
2022-10-22T01:43:16.736Z,100749.78
2022-10-22T01:45:55.217Z,100761.00
2022-10-22T01:48:50.910Z,100747.13
2022-10-22T01:51:42.456Z,100759.28
2022-10-22T01:54:42.217Z,100745.34
2022-10-22T01:57:59.909Z,100749.69
2022-10-22T02:00:30.378Z,100750.53
2022-10-22T02:04:01.187Z,100753.97
2022-10-22T02:07:13.618Z,100759.16
2022-10-22T02:10:14.580Z,100751.34
2022-10-22T02:13:23.940Z,100742.72
2022-10-22T02:16:13.037Z,100749.69
2022-10-22T02:19:01.803Z,100751.38
2022-10-22T02:21:30.704Z,100748.84
2022-10-22T02:24:01.897Z,100757.44
2022-10-22T02:26:56.202Z,100750.53
2022-10-22T02:29:51.836Z,100758.28
2022-10-22T02:32:59.489Z,100760.88
2022-10-22T02:35:36.661Z,100760.13
2022-10-22T02:38:07.105Z,100759.16
2022-10-22T02:40:40.996Z,100764.38
2022-10-22T02:43:12.252Z,100764.38
2022-10-22T02:45:40.996Z,100764.38
2022-10-22T02:48:11.981Z,100764.31
2022-10-22T02:50:38.923Z,100763.56
2022-10-22T02:53:05.778Z,100771.22
2022-10-22T02:55:38.660Z,100768.59
2022-10-22T02:58:05.593Z,100771.22
2022-10-22T03:00:32.473Z,100778.91
2022-10-22T03:03:06.401Z,100771.09
2022-10-22T03:05:35.682Z,100772.81
2022-10-22T03:08:18.014Z,100764.16
2022-10-22T03:10:47.798Z,100767.75
2022-10-22T03:13:14.665Z,100768.47
2022-10-22T03:15:46.229Z,100766.78
2022-10-22T03:18:14.946Z,100770.22
2022-10-22T03:20:41.777Z,100770.25
2022-10-22T03:23:15.731Z,100775.44
2022-10-22T03:26:05.503Z,100775.47
2022-10-22T03:28:53.323Z,100767.66
2022-10-22T03:31:23.557Z,100781.59
2022-10-22T03:33:50.412Z,100779.03
2022-10-22T03:36:17.661Z,100786.06
2022-10-22T03:38:47.038Z,100783.47
2022-10-22T03:41:20.633Z,100792.13
2022-10-22T03:44:01.910Z,100781.78
2022-10-22T03:46:33.094Z,100775.78
2022-10-22T03:49:02.376Z,100785.31
2022-10-22T03:51:32.952Z,100794.00
2022-10-22T03:54:06.804Z,100797.44
2022-10-22T03:56:35.667Z,100798.31
2022-10-22T03:59:02.894Z,100797.44
2022-10-22T04:01:49.741Z,100806.13
2022-10-22T04:04:26.103Z,100801.81
2022-10-22T04:06:53.006Z,100809.63
2022-10-22T04:09:24.564Z,100802.72
2022-10-22T04:11:53.293Z,100799.28
2022-10-22T04:14:27.841Z,100798.38
2022-10-22T04:16:54.769Z,100810.53
2022-10-22T04:19:28.868Z,100807.09
2022-10-22T04:22:19.307Z,100818.34
2022-10-22T04:24:48.758Z,100820.13
2022-10-22T04:27:19.912Z,100818.53
2022-10-22T04:29:46.874Z,100826.25
2022-10-22T04:32:18.402Z,100820.13
2022-10-22T04:34:50.176Z,100828.88
2022-10-22T04:37:17.203Z,100824.50
2022-10-22T04:39:44.088Z,100824.59
2022-10-22T04:42:11.166Z,100828.16
2022-10-22T04:44:38.100Z,100835.06
2022-10-22T04:47:04.985Z,100838.53
2022-10-22T04:49:31.860Z,100829.19
2022-10-22T04:51:58.891Z,100832.59
2022-10-22T04:54:29.008Z,100836.16
2022-10-22T04:56:59.097Z,100832.75
2022-10-22T04:59:26.109Z,100837.06
2022-10-22T05:01:53.001Z,100837.19
2022-10-22T05:04:19.995Z,100837.09
2022-10-22T05:06:47.051Z,100844.13
2022-10-22T05:09:16.720Z,100846.75
2022-10-22T05:11:46.326Z,100849.34
2022-10-22T05:14:13.292Z,100852.88
2022-10-22T05:16:40.400Z,100849.50
2022-10-22T05:19:08.227Z,100856.41
2022-10-22T05:21:37.474Z,100854.72
2022-10-22T05:24:04.798Z,100857.25
2022-10-22T05:26:31.739Z,100853.88
2022-10-22T05:28:58.643Z,100859.00
2022-10-22T05:31:25.471Z,100859.94
2022-10-22T05:33:52.363Z,100852.22
2022-10-22T05:36:21.357Z,100869.50
2022-10-22T05:38:49.134Z,100872.13
2022-10-22T05:41:19.051Z,100869.59
2022-10-22T05:43:46.397Z,100872.13
2022-10-22T05:46:22.473Z,100879.09
2022-10-22T05:48:55.373Z,100880.00
2022-10-22T05:51:22.766Z,100877.38
2022-10-22T05:53:53.677Z,100874.03
2022-10-22T05:56:22.014Z,100880.00
2022-10-22T05:58:49.035Z,100874.97
2022-10-22T06:01:21.682Z,100888.78
2022-10-22T06:03:49.463Z,100892.28
2022-10-22T06:06:34.215Z,100897.50
2022-10-22T06:09:15.166Z,100893.97
2022-10-22T06:11:42.202Z,100896.56
2022-10-22T06:14:10.047Z,100896.56
2022-10-22T06:16:37.122Z,100896.63
2022-10-22T06:19:04.131Z,100894.06
2022-10-22T06:21:32.255Z,100913.06
2022-10-22T06:24:00.666Z,100908.72
2022-10-22T06:26:27.664Z,100920.00
2022-10-22T06:28:56.175Z,100927.81
2022-10-22T06:31:24.302Z,100930.38
2022-10-22T06:33:51.374Z,100932.22
2022-10-22T06:36:20.588Z,100939.94
2022-10-22T06:38:47.679Z,100952.16
2022-10-22T06:41:16.335Z,100948.69
2022-10-22T06:43:45.322Z,100951.28
2022-10-22T06:46:16.050Z,100960.81
2022-10-22T06:48:50.945Z,100960.78
2022-10-22T06:51:18.830Z,100964.16
2022-10-22T06:53:45.846Z,100966.81
2022-10-22T06:56:15.452Z,100968.59
2022-10-22T06:58:42.408Z,100974.63
2022-10-22T07:01:13.080Z,100980.66
2022-10-22T07:03:41.214Z,100980.59
2022-10-22T07:06:10.322Z,100978.91
2022-10-22T07:08:38.552Z,100985.75
2022-10-22T07:11:12.292Z,100991.84
2022-10-22T07:13:39.545Z,100989.25
2022-10-22T07:16:07.950Z,100990.06
2022-10-22T07:18:35.746Z,100991.84
2022-10-22T07:21:03.428Z,100998.69
2022-10-22T07:23:30.285Z,101003.88
2022-10-22T07:25:57.513Z,100998.69
2022-10-22T07:28:24.814Z,101010.81
2022-10-22T07:30:51.721Z,101011.66
2022-10-22T07:33:18.603Z,101022.06
2022-10-22T07:35:45.739Z,101030.66
2022-10-22T07:38:12.694Z,101027.19
2022-10-22T07:40:39.741Z,101029.75
2022-10-22T07:43:06.751Z,101029.75
2022-10-22T07:45:33.877Z,101040.03
2022-10-22T07:48:01.860Z,101034.09
2022-10-22T07:50:28.719Z,101042.59
2022-10-22T07:52:57.544Z,101046.84
2022-10-22T07:55:25.726Z,101038.19
2022-10-22T07:57:52.813Z,101034.69
2022-10-22T08:00:23.033Z,101051.13
2022-10-22T08:02:52.660Z,101053.78
2022-10-22T08:05:19.818Z,101057.19
2022-10-22T08:07:46.770Z,101057.19
2022-10-22T08:10:13.635Z,101067.53
2022-10-22T08:12:42.161Z,101081.38
2022-10-22T08:15:10.093Z,101073.66
2022-10-22T08:17:37.173Z,101072.81
2022-10-22T08:20:04.612Z,101089.13
2022-10-22T08:22:31.653Z,101077.09
2022-10-22T08:25:00.374Z,101080.53
2022-10-22T08:27:27.303Z,101092.59
2022-10-22T08:29:54.265Z,101095.22
2022-10-22T08:32:21.197Z,101107.16
2022-10-22T08:34:48.326Z,101097.72
2022-10-22T08:37:17.182Z,101097.63
2022-10-22T08:39:45.409Z,101095.91
2022-10-22T08:42:57.663Z,101105.38
2022-10-22T08:45:36.456Z,101107.97
2022-10-22T08:48:35.552Z,101115.63
2022-10-22T08:51:02.624Z,101101.84
2022-10-22T08:53:44.565Z,101107.78
2022-10-22T08:56:11.603Z,101108.66
2022-10-22T08:58:41.071Z,101115.53
2022-10-22T09:01:14.845Z,101119.81
2022-10-22T09:03:50.379Z,101120.56
2022-10-22T09:06:29.638Z,101123.97
2022-10-22T09:08:59.234Z,101131.72
2022-10-22T09:11:31.772Z,101129.84
2022-10-22T09:14:00.059Z,101135.06
2022-10-22T09:16:37.223Z,101135.81
2022-10-22T09:19:12.208Z,101134.13
2022-10-22T09:22:02.624Z,101139.06
2022-10-22T09:24:48.120Z,101144.22
2022-10-22T09:27:18.612Z,101138.19
2022-10-22T09:29:47.542Z,101147.59
2022-10-22T09:32:16.908Z,101142.34
2022-10-22T09:34:45.627Z,101140.59
2022-10-22T09:37:12.598Z,101134.44
2022-10-22T09:39:48.269Z,101146.47
2022-10-22T09:42:17.849Z,101153.38
2022-10-22T09:44:52.578Z,101154.19
2022-10-22T09:47:43.013Z,101153.28
2022-10-22T09:50:22.943Z,101161.00
2022-10-22T09:53:19.228Z,101158.28
2022-10-22T09:55:51.790Z,101150.47
2022-10-22T09:58:19.950Z,101161.59
2022-10-22T10:00:53.038Z,101161.47
2022-10-22T10:03:24.273Z,101160.63
2022-10-22T10:06:00.190Z,101169.94
2022-10-22T10:08:30.448Z,101171.72
2022-10-22T10:11:06.444Z,101179.38
2022-10-22T10:13:45.424Z,101185.38
2022-10-22T10:16:25.320Z,101187.03
2022-10-22T10:19:13.629Z,101187.81
2022-10-22T10:22:01.323Z,101187.75
2022-10-22T10:24:40.226Z,101199.00
2022-10-22T10:27:10.148Z,101198.06
2022-10-22T10:29:50.829Z,101200.59
2022-10-22T10:32:39.273Z,101196.94
2022-10-22T10:35:09.344Z,101198.69
2022-10-22T10:38:01.267Z,101203.81
2022-10-22T10:40:37.303Z,101206.38
2022-10-22T10:43:13.698Z,101207.06
2022-10-22T10:45:56.964Z,101211.44
2022-10-22T10:48:35.535Z,101204.34
2022-10-22T10:51:06.679Z,101211.25
2022-10-22T10:54:00.391Z,101210.22
2022-10-22T10:56:39.430Z,101217.09
2022-10-22T10:59:27.611Z,101202.22
2022-10-22T11:01:54.547Z,101198.72
2022-10-22T11:04:21.314Z,101203.84
2022-10-22T11:06:50.495Z,101210.75
2022-10-22T11:09:26.920Z,101221.09
2022-10-22T11:12:03.323Z,101223.72
2022-10-22T11:14:50.198Z,101211.56
2022-10-22T11:17:18.551Z,101220.97
2022-10-22T11:20:11.193Z,101217.38
2022-10-22T11:23:19.651Z,101222.50
2022-10-22T11:25:49.874Z,101215.59
2022-10-22T11:28:26.986Z,101218.16
2022-10-22T11:31:01.671Z,101211.09
2022-10-22T11:33:37.938Z,101222.38
2022-10-22T11:36:07.674Z,101220.59
2022-10-22T11:38:36.463Z,101224.13
2022-10-22T11:41:13.360Z,101219.66
2022-10-22T11:43:55.719Z,101217.78
2022-10-22T11:46:22.603Z,101216.94
2022-10-22T11:49:13.942Z,101223.75
2022-10-22T11:51:43.396Z,101220.31
2022-10-22T11:54:45.264Z,101216.75
2022-10-22T11:57:15.138Z,101218.41
2022-10-22T11:59:44.968Z,101213.09
2022-10-22T12:02:42.931Z,101214.78
2022-10-22T12:05:22.138Z,101213.81
2022-10-22T12:08:14.861Z,101221.56
2022-10-22T12:11:11.479Z,101195.56
2022-10-22T12:14:12.505Z,101217.97
2022-10-22T12:16:56.174Z,101212.78
2022-10-22T12:19:23.176Z,101218.88
2022-10-22T12:21:55.503Z,101211.84
2022-10-22T12:24:24.347Z,101208.41
2022-10-22T12:26:52.833Z,101201.50
2022-10-22T12:29:26.543Z,101200.59
2022-10-22T12:31:54.986Z,101192.66
2022-10-22T12:34:23.984Z,101198.59
2022-10-22T12:36:53.718Z,101204.72
2022-10-22T12:39:22.902Z,101202.84
2022-10-22T12:41:49.969Z,101195.03
2022-10-22T12:44:17.892Z,101200.16
2022-10-22T12:46:50.588Z,101194.16
2022-10-22T12:49:22.798Z,101200.13
2022-10-22T12:51:50.181Z,101190.53
2022-10-22T12:54:22.850Z,101196.56
2022-10-22T12:56:50.423Z,101190.44
2022-10-22T12:59:24.653Z,101191.28
2022-10-22T13:01:52.505Z,101190.34
2022-10-22T13:04:28.404Z,101188.66
2022-10-22T13:07:16.936Z,101195.38
2022-10-22T13:09:55.652Z,101189.31
2022-10-22T13:12:28.742Z,101193.66
2022-10-22T13:14:55.825Z,101186.69
2022-10-22T13:17:41.863Z,101190.97
2022-10-22T13:20:23.525Z,101193.53
2022-10-22T13:22:58.123Z,101198.69
2022-10-22T13:25:31.053Z,101195.25
2022-10-22T13:28:19.898Z,101196.16
2022-10-22T13:30:59.000Z,101209.00
2022-10-22T13:33:37.159Z,101207.16
2022-10-22T13:36:05.197Z,101201.09
2022-10-22T13:38:32.417Z,101208.94
2022-10-22T13:40:59.535Z,101196.06
2022-10-22T13:43:26.609Z,101208.91
2022-10-22T13:45:58.105Z,101208.03
2022-10-22T13:48:26.678Z,101214.97
2022-10-22T13:50:54.084Z,101208.91
2022-10-22T13:53:26.114Z,101194.19
2022-10-22T13:55:53.344Z,101207.97
2022-10-22T13:58:24.607Z,101195.94
2022-10-22T14:00:57.912Z,101212.41
2022-10-22T14:03:33.942Z,101211.63
2022-10-22T14:06:01.792Z,101207.34
2022-10-22T14:08:29.201Z,101209.91
2022-10-22T14:10:56.566Z,101205.50
2022-10-22T14:13:23.505Z,101208.19
2022-10-22T14:15:52.206Z,101203.88
2022-10-22T14:18:27.448Z,101202.06
2022-10-22T14:20:57.813Z,101201.22
2022-10-22T14:23:27.627Z,101196.81
2022-10-22T14:25:54.865Z,101196.06
2022-10-22T14:28:21.822Z,101191.59
2022-10-22T14:30:49.724Z,101192.41
2022-10-22T14:33:19.695Z,101198.44
2022-10-22T14:35:48.804Z,101193.38
2022-10-22T14:38:16.089Z,101195.88
2022-10-22T14:40:43.877Z,101209.78
2022-10-22T14:43:14.402Z,101206.22
2022-10-22T14:45:41.331Z,101207.13
2022-10-22T14:48:08.440Z,101212.41
2022-10-22T14:50:35.578Z,101210.59
2022-10-22T14:53:02.702Z,101200.94
2022-10-22T14:55:29.567Z,101200.03
2022-10-22T14:57:56.705Z,101205.25
2022-10-22T15:00:23.891Z,101211.34
2022-10-22T15:02:51.055Z,101209.56
2022-10-22T15:05:18.273Z,101200.97
2022-10-22T15:07:45.763Z,101207.13
2022-10-22T15:10:12.646Z,101214.78
2022-10-22T15:12:39.802Z,101214.78
2022-10-22T15:15:07.517Z,101213.94
2022-10-22T15:17:34.431Z,101208.81
2022-10-22T15:20:04.133Z,101220.94
2022-10-22T15:22:32.014Z,101220.09
2022-10-22T15:24:58.954Z,101214.88
2022-10-22T15:27:26.041Z,101220.94
2022-10-22T15:29:53.085Z,101209.69
2022-10-22T15:32:19.993Z,101218.31
2022-10-22T15:34:47.006Z,101221.69
2022-10-22T15:37:14.485Z,101224.41
2022-10-22T15:39:42.365Z,101226.16
2022-10-22T15:42:09.655Z,101226.16
2022-10-22T15:44:37.282Z,101234.97
2022-10-22T15:47:06.407Z,101233.31
2022-10-22T15:49:36.355Z,101243.66
2022-10-22T15:52:04.320Z,101235.91
2022-10-22T15:54:31.980Z,101240.38
2022-10-22T15:57:03.471Z,101237.91
2022-10-22T15:59:30.721Z,101236.22
2022-10-22T16:01:57.646Z,101238.94
2022-10-22T16:04:24.623Z,101234.75
2022-10-22T16:06:52.880Z,101244.38
2022-10-22T16:09:23.193Z,101254.84
2022-10-22T16:14:24.137Z,101242.91
2022-10-22T16:16:53.444Z,101246.50
2022-10-22T16:19:22.700Z,101245.63
2022-10-22T16:21:51.765Z,101238.88
2022-10-22T16:24:19.902Z,101235.38
2022-10-22T16:26:47.689Z,101238.19
2022-10-22T16:29:16.156Z,101233.91
2022-10-22T16:31:45.461Z,101238.47
2022-10-22T16:34:13.220Z,101236.88
2022-10-22T16:36:40.259Z,101242.22
2022-10-22T16:39:07.353Z,101242.31
2022-10-22T16:41:37.533Z,101236.47
2022-10-22T16:44:07.810Z,101247.81
2022-10-22T16:46:38.494Z,101245.34
2022-10-22T16:49:06.860Z,101248.13
2022-10-22T16:51:34.871Z,101250.81
2022-10-22T16:54:03.657Z,101255.41
2022-10-22T16:56:33.732Z,101257.31
2022-10-22T16:59:00.699Z,101258.28
2022-10-22T17:01:29.312Z,101265.31
2022-10-22T17:03:59.496Z,101266.34
2022-10-22T17:06:26.767Z,101275.97
2022-10-22T17:08:54.038Z,101278.69
2022-10-22T17:11:22.956Z,101275.31
2022-10-22T17:13:52.753Z,101269.47
2022-10-22T17:16:22.489Z,101266.94
2022-10-22T17:18:49.593Z,101274.81
2022-10-22T17:21:17.454Z,101262.91
2022-10-22T17:23:44.531Z,101278.47
2022-10-22T17:26:22.891Z,101283.78
2022-10-22T17:28:50.317Z,101281.25
2022-10-22T17:31:26.564Z,101283.88
2022-10-22T17:33:55.768Z,101279.63
2022-10-22T17:36:24.152Z,101282.34
2022-10-22T17:38:54.269Z,101285.81
2022-10-22T17:41:24.479Z,101286.72
2022-10-22T17:43:51.782Z,101280.78
2022-10-22T17:46:21.811Z,101284.34
2022-10-22T17:48:50.631Z,101284.34
2022-10-22T17:51:18.604Z,101287.88
2022-10-22T17:53:46.215Z,101292.25
2022-10-22T17:56:15.606Z,101302.69
2022-10-22T17:58:42.503Z,101294.94
2022-10-22T18:01:19.219Z,101292.44
2022-10-22T18:03:46.268Z,101297.66
2022-10-22T18:06:13.429Z,101290.84
2022-10-22T18:08:40.601Z,101289.97
2022-10-22T18:11:13.254Z,101296.16
2022-10-22T18:13:40.193Z,101289.25
2022-10-22T18:16:07.156Z,101291.94
2022-10-22T18:18:35.521Z,101297.22
2022-10-22T18:21:03.905Z,101293.03
2022-10-22T18:23:30.904Z,101294.81
2022-10-22T18:25:57.883Z,101302.63
2022-10-22T18:28:24.982Z,101294.88
2022-10-22T18:30:51.965Z,101290.75
2022-10-22T18:33:19.415Z,101294.19
2022-10-22T18:35:47.056Z,101289.13
2022-10-22T18:38:14.167Z,101291.72
2022-10-22T18:40:46.464Z,101287.47
2022-10-22T18:43:13.539Z,101288.38
2022-10-22T18:45:44.768Z,101284.06
2022-10-22T18:48:14.592Z,101289.34
2022-10-22T18:50:41.794Z,101287.78
2022-10-22T18:53:08.963Z,101291.22
2022-10-22T18:55:38.658Z,101289.66
2022-10-22T18:58:06.065Z,101281.13
2022-10-22T19:00:35.164Z,101290.63
2022-10-22T19:03:03.345Z,101290.69
2022-10-22T19:05:31.072Z,101291.75
2022-10-22T19:07:58.225Z,101300.41
2022-10-22T19:10:25.221Z,101280.59
2022-10-22T19:12:52.195Z,101285.91
2022-10-22T19:15:19.268Z,101283.34
2022-10-22T19:17:46.435Z,101277.28
2022-10-22T19:20:13.321Z,101281.66
2022-10-22T19:22:40.340Z,101276.50
2022-10-22T19:25:09.762Z,101273.97
2022-10-22T19:27:39.720Z,101268.84
2022-10-22T19:30:07.682Z,101274.03
2022-10-22T19:32:35.006Z,101278.47
2022-10-22T19:35:02.705Z,101270.72
2022-10-22T19:37:29.944Z,101271.66
2022-10-22T19:39:56.821Z,101279.59
2022-10-22T19:42:23.852Z,101269.28
2022-10-22T19:44:50.840Z,101274.47
2022-10-22T19:47:17.807Z,101272.91
2022-10-22T19:49:44.841Z,101280.72
2022-10-22T19:52:11.661Z,101273.91
2022-10-22T19:54:40.878Z,101288.66
2022-10-22T19:57:08.476Z,101286.06
2022-10-22T19:59:35.416Z,101288.66
2022-10-22T20:02:03.623Z,101282.63
2022-10-22T20:04:30.945Z,101285.16
2022-10-22T20:06:58.093Z,101279.97
2022-10-22T20:09:25.120Z,101275.66
2022-10-22T20:11:52.141Z,101279.16
2022-10-22T20:14:19.003Z,101280.03
2022-10-22T20:16:46.384Z,101282.69
2022-10-22T20:19:16.279Z,101280.03
2022-10-22T20:21:45.116Z,101274.91
2022-10-22T20:24:12.512Z,101281.78
2022-10-22T20:26:39.494Z,101289.59
2022-10-22T20:29:07.711Z,101292.16
2022-10-22T20:31:38.109Z,101297.38
2022-10-22T20:34:05.105Z,101291.19
2022-10-22T20:36:40.056Z,101291.19
2022-10-22T20:39:36.494Z,101276.44
2022-10-22T20:42:08.307Z,101280.72
2022-10-22T20:44:35.302Z,101268.63
2022-10-22T20:47:16.270Z,101279.81
2022-10-22T20:49:43.152Z,101279.81
2022-10-22T20:52:10.283Z,101280.66
2022-10-22T20:54:41.438Z,101270.31
2022-10-22T20:57:08.824Z,101282.34
2022-10-22T20:59:36.433Z,101278.88
2022-10-22T21:02:03.728Z,101283.19
2022-10-22T21:04:30.959Z,101285.72
2022-10-22T21:06:58.556Z,101281.44
2022-10-22T21:09:25.795Z,101283.97
2022-10-22T21:11:57.022Z,101294.38
2022-10-22T21:14:24.034Z,101290.94
2022-10-22T21:16:54.262Z,101295.22
2022-10-22T21:19:22.686Z,101291.72
2022-10-22T21:21:49.918Z,101292.50
2022-10-22T21:24:16.893Z,101289.19
2022-10-22T21:26:45.672Z,101292.53
2022-10-22T21:29:13.463Z,101296.91
2022-10-22T21:31:40.621Z,101295.09
2022-10-22T21:34:07.818Z,101294.25
2022-10-22T21:36:35.049Z,101285.63
2022-10-22T21:39:02.736Z,101281.16
2022-10-22T21:41:29.814Z,101278.56
2022-10-22T21:43:57.013Z,101280.38
2022-10-22T21:46:30.967Z,101290.66
2022-10-22T21:49:10.664Z,101289.03
2022-10-22T21:51:38.390Z,101301.03
2022-10-22T21:54:07.666Z,101299.28
2022-10-22T21:56:40.181Z,101294.09
2022-10-22T21:59:11.891Z,101294.03
2022-10-22T22:01:49.122Z,101290.63
2022-10-22T22:04:16.023Z,101287.97
2022-10-22T22:07:00.566Z,101284.47
2022-10-22T22:09:27.434Z,101286.22
2022-10-22T22:11:58.820Z,101287.06
2022-10-22T22:14:30.803Z,101282.69
2022-10-22T22:17:05.993Z,101285.28
2022-10-22T22:19:35.940Z,101282.69
2022-10-22T22:22:07.217Z,101285.31
2022-10-22T22:24:35.642Z,101280.09
2022-10-22T22:27:07.694Z,101281.81
2022-10-22T22:29:34.884Z,101270.66
2022-10-22T22:32:09.856Z,101281.84
2022-10-22T22:34:37.067Z,101267.31
2022-10-22T22:37:08.573Z,101290.50
2022-10-22T22:39:35.622Z,101267.38
2022-10-22T22:42:03.403Z,101287.06
2022-10-22T22:44:38.291Z,101290.56
2022-10-22T22:49:45.948Z,101279.38
2022-10-22T22:54:50.217Z,101288.91
2022-10-22T22:57:22.972Z,101271.66
2022-10-22T22:59:50.725Z,101269.88
2022-10-22T23:02:17.677Z,101269.84
2022-10-22T23:04:47.626Z,101275.94
2022-10-22T23:07:19.208Z,101268.06
2022-10-22T23:10:00.735Z,101259.41
2022-10-22T23:12:40.668Z,101247.34
2022-10-22T23:15:12.893Z,101260.31
2022-10-22T23:17:39.827Z,101252.50
2022-10-22T23:20:07.784Z,101260.31
2022-10-22T23:22:38.672Z,101260.28
2022-10-22T23:25:09.677Z,101253.38
2022-10-22T23:27:40.143Z,101269.88
2022-10-22T23:30:13.164Z,101261.19
2022-10-22T23:32:51.570Z,101249.91
2022-10-22T23:35:23.840Z,101254.25
2022-10-22T23:37:52.608Z,101260.28
2022-10-22T23:40:24.521Z,101253.31
2022-10-22T23:42:54.407Z,101242.91
2022-10-22T23:45:21.293Z,101247.25
2022-10-22T23:47:51.181Z,101238.59
2022-10-22T23:50:31.108Z,101241.19
2022-10-22T23:53:03.909Z,101248.16
2022-10-22T23:55:42.442Z,101237.75
2022-10-22T23:58:17.798Z,101250.75
